Time;durP1;ratioP1;P1;durP2;ratioP2;P2;SDS_P1;SDS_P2;PMS_P1;PMS_P2;Temp;Humidity;BMP_temperature;BMP_pressure;BME280_temperature;BME280_humidity;BME280_pressure;Samples;Min_cycle;Max_cycle;Signal;HPM_P1;HPM_P2
2023/04/13 00:01:39;;;;;;;1.87;1.30;;;5.60;99.90;;;;;;487294;244;27856;-75
2023/04/13 00:03:40;;;;;;;2.85;1.40;;;5.60;99.90;;;;;;487310;244;27933;-74
2023/04/13 00:05:41;;;;;;;3.97;1.52;;;5.60;99.90;;;;;;487252;244;27391;-75
2023/04/13 00:07:43;;;;;;;2.25;1.20;;;5.60;99.90;;;;;;487285;244;27537;-75
2023/04/13 00:09:49;;;;;;;2.00;1.30;;;5.60;99.90;;;;;;487275;244;27392;-75
2023/04/13 00:11:48;;;;;;;5.37;1.42;;;5.70;99.90;;;;;;487095;244;27468;-75
2023/04/13 00:13:49;;;;;;;5.10;1.52;;;5.60;99.90;;;;;;487274;244;27933;-75
2023/04/13 00:15:52;;;;;;;7.65;1.50;;;5.60;99.90;;;;;;487262;244;27423;-75
2023/04/13 00:17:52;;;;;;;3.87;1.50;;;5.60;99.90;;;;;;487216;244;27463;-74
2023/04/13 00:19:56;;;;;;;3.15;1.45;;;5.60;99.90;;;;;;487283;244;27502;-74
2023/04/13 00:21:54;;;;;;;2.00;1.80;;;5.60;99.90;;;;;;487081;244;27407;-74
2023/04/13 00:23:56;;;;;;;3.60;1.50;;;5.50;99.90;;;;;;487296;244;28812;-74
2023/04/13 00:25:57;;;;;;;2.58;1.42;;;5.50;99.90;;;;;;487248;244;29351;-74
2023/04/13 00:28:01;;;;;;;7.18;1.33;;;5.50;99.90;;;;;;487273;243;27967;-74
2023/04/13 00:29:59;;;;;;;4.12;1.50;;;5.40;99.90;;;;;;487005;244;27549;-74
2023/04/13 00:32:01;;;;;;;6.68;1.50;;;5.50;99.90;;;;;;487300;244;27402;-73
2023/04/13 00:34:02;;;;;;;3.00;1.40;;;5.50;99.90;;;;;;487320;244;27531;-74
2023/04/13 00:36:03;;;;;;;3.30;1.48;;;5.40;99.90;;;;;;487286;244;27458;-74
2023/04/13 00:38:04;;;;;;;5.60;1.50;;;5.40;99.90;;;;;;487314;244;27486;-74
2023/04/13 00:40:07;;;;;;;4.95;1.52;;;5.40;99.90;;;;;;487324;244;27919;-74
2023/04/13 00:42:07;;;;;;;4.45;1.52;;;5.40;99.90;;;;;;487289;244;27931;-74
2023/04/13 00:44:08;;;;;;;3.35;1.70;;;5.40;99.90;;;;;;487288;244;27434;-74
2023/04/13 00:46:09;;;;;;;2.83;1.80;;;5.30;99.90;;;;;;487251;244;27510;-74
2023/04/13 00:48:11;;;;;;;4.68;1.10;;;5.30;99.90;;;;;;487333;244;27400;-74
2023/04/13 00:50:12;;;;;;;2.47;1.30;;;5.30;99.90;;;;;;487284;243;27549;-74
2023/04/13 00:52:13;;;;;;;3.50;1.70;;;5.40;99.90;;;;;;487257;243;27450;-74
2023/04/13 00:54:15;;;;;;;3.83;1.60;;;5.30;99.90;;;;;;487263;243;28808;-74
2023/04/13 00:56:16;;;;;;;5.00;1.65;;;5.30;99.90;;;;;;487263;244;27904;-74
2023/04/13 00:58:17;;;;;;;2.45;1.35;;;5.30;99.90;;;;;;487286;243;27388;-74
2023/04/13 01:00:19;;;;;;;6.05;1.30;;;5.20;99.90;;;;;;487296;244;27461;-74
2023/04/13 01:02:23;;;;;;;4.45;1.60;;;5.20;99.90;;;;;;487257;244;27388;-74
2023/04/13 01:04:22;;;;;;;4.12;1.70;;;5.30;99.90;;;;;;487012;244;27990;-74
2023/04/13 01:06:23;;;;;;;2.67;1.40;;;5.30;99.90;;;;;;487185;244;28105;-74
2023/04/13 01:08:23;;;;;;;5.87;1.80;;;5.40;99.90;;;;;;487285;244;27434;-74
2023/04/13 01:10:25;;;;;;;2.55;1.37;;;5.40;99.90;;;;;;487277;244;27549;-74
2023/04/13 01:12:26;;;;;;;1.67;1.52;;;5.30;99.90;;;;;;487237;244;27404;-74
2023/04/13 01:14:27;;;;;;;1.92;1.20;;;5.30;99.90;;;;;;487233;244;27429;-74
2023/04/13 01:16:28;;;;;;;1.60;1.50;;;5.20;99.90;;;;;;487326;244;27430;-74
2023/04/13 01:18:29;;;;;;;5.70;1.45;;;5.20;99.90;;;;;;487311;244;28040;-74
2023/04/13 01:20:31;;;;;;;4.75;1.87;;;5.10;99.90;;;;;;487267;244;27922;-74
2023/04/13 01:22:32;;;;;;;1.42;1.20;;;5.20;99.90;;;;;;487298;244;27482;-74
2023/04/13 01:24:34;;;;;;;2.15;1.27;;;5.20;99.90;;;;;;487196;244;27431;-74
2023/04/13 01:26:35;;;;;;;3.22;1.33;;;5.20;99.90;;;;;;487298;244;27563;-74
2023/04/13 01:28:36;;;;;;;3.08;1.73;;;5.30;99.90;;;;;;487244;244;27395;-74
2023/04/13 01:30:37;;;;;;;2.00;1.40;;;5.40;99.90;;;;;;487268;244;27438;-74
2023/04/13 01:32:39;;;;;;;4.62;1.50;;;5.50;99.90;;;;;;487267;244;27856;-74
2023/04/13 01:34:40;;;;;;;3.10;1.55;;;5.50;99.90;;;;;;487140;244;27870;-74
2023/04/13 01:36:42;;;;;;;4.40;1.70;;;5.60;99.90;;;;;;487321;244;27534;-74
2023/04/13 01:38:42;;;;;;;3.50;1.37;;;5.60;99.90;;;;;;487233;244;27431;-74
2023/04/13 01:40:44;;;;;;;3.65;1.60;;;5.70;99.90;;;;;;487328;244;27517;-74
2023/04/13 01:42:45;;;;;;;9.43;2.03;;;5.70;99.90;;;;;;487241;244;27391;-74
2023/04/13 01:44:46;;;;;;;4.47;1.43;;;5.70;99.90;;;;;;487202;244;27427;-74
2023/04/13 01:46:48;;;;;;;4.80;1.40;;;5.70;99.90;;;;;;487296;244;29262;-74
2023/04/13 01:48:49;;;;;;;2.90;1.48;;;5.70;99.90;;;;;;487270;244;29298;-73
2023/04/13 01:50:50;;;;;;;3.95;1.27;;;5.80;99.90;;;;;;487323;244;27466;-74
2023/04/13 01:52:51;;;;;;;3.42;1.45;;;5.80;99.90;;;;;;487284;244;27495;-74
2023/04/13 01:54:52;;;;;;;4.43;1.60;;;5.80;99.90;;;;;;487207;244;27517;-74
2023/04/13 01:56:55;;;;;;;3.75;1.40;;;5.80;99.90;;;;;;487323;244;27510;-74
2023/04/13 01:58:58;;;;;;;1.33;1.23;;;5.70;99.90;;;;;;487206;244;27404;-74
2023/04/13 02:00:59;;;;;;;4.55;1.60;;;5.80;99.90;;;;;;487287;244;27847;-74
2023/04/13 02:03:01;;;;;;;3.35;1.58;;;5.80;99.90;;;;;;487311;244;28023;-75
2023/04/13 02:05:01;;;;;;;8.13;1.30;;;5.80;99.90;;;;;;487184;244;27395;-74
2023/04/13 02:07:02;;;;;;;2.67;1.60;;;5.90;99.90;;;;;;487232;244;28620;-74
2023/04/13 02:09:07;;;;;;;3.22;1.35;;;5.90;99.90;;;;;;487326;243;27797;-74
2023/04/13 02:11:06;;;;;;;4.18;1.87;;;6.00;99.90;;;;;;486805;243;27492;-74
2023/04/13 02:13:08;;;;;;;3.62;1.52;;;5.90;99.90;;;;;;487248;244;27932;-74
2023/04/13 02:15:08;;;;;;;8.23;1.65;;;6.00;99.90;;;;;;487144;243;27862;-74
2023/04/13 02:17:09;;;;;;;5.00;1.37;;;6.00;99.90;;;;;;487192;244;27442;-74
2023/04/13 02:19:10;;;;;;;2.20;1.40;;;6.00;99.90;;;;;;487206;244;28810;-74
2023/04/13 02:21:12;;;;;;;4.15;1.60;;;6.00;99.90;;;;;;487310;244;27499;-74
2023/04/13 02:23:16;;;;;;;2.35;1.05;;;6.00;99.90;;;;;;487260;244;27470;-74
2023/04/13 02:25:17;;;;;;;4.18;1.87;;;6.00;99.90;;;;;;487195;244;27906;-74
2023/04/13 02:27:18;;;;;;;18.30;2.37;;;6.00;99.90;;;;;;487257;244;27398;-74
2023/04/13 02:29:19;;;;;;;3.12;1.20;;;6.00;99.90;;;;;;487274;244;27431;-74
2023/04/13 02:31:22;;;;;;;5.90;2.23;;;6.00;99.90;;;;;;487288;244;27413;-75
2023/04/13 02:33:22;;;;;;;2.35;1.20;;;6.00;99.90;;;;;;487225;244;28190;-74
2023/04/13 02:35:24;;;;;;;8.70;1.65;;;6.00;99.90;;;;;;487198;244;27915;-74
2023/04/13 02:37:24;;;;;;;6.35;1.60;;;6.00;99.90;;;;;;487199;244;28004;-74
2023/04/13 02:39:25;;;;;;;5.10;1.70;;;6.00;99.90;;;;;;487237;243;27434;-74
2023/04/13 02:41:27;;;;;;;4.20;1.60;;;6.00;99.90;;;;;;487321;243;27428;-75
2023/04/13 02:43:28;;;;;;;4.70;1.35;;;6.00;99.90;;;;;;487274;244;27504;-74
2023/04/13 02:45:29;;;;;;;2.40;1.53;;;6.00;99.90;;;;;;487207;243;27430;-74
2023/04/13 02:47:32;;;;;;;8.30;1.77;;;6.00;99.90;;;;;;487270;244;28749;-74
2023/04/13 02:49:32;;;;;;;7.17;1.47;;;6.00;99.90;;;;;;487177;244;27892;-74
2023/04/13 02:51:33;;;;;;;11.30;2.03;;;5.90;99.90;;;;;;487302;244;29255;-74
2023/04/13 02:53:34;;;;;;;5.70;1.90;;;5.90;99.90;;;;;;487265;244;27913;-74
2023/04/13 02:55:36;;;;;;;3.30;1.50;;;5.90;99.90;;;;;;487241;244;27478;-75
2023/04/13 02:57:37;;;;;;;3.87;1.50;;;5.90;99.90;;;;;;487260;244;27402;-74
2023/04/13 02:59:38;;;;;;;7.77;1.63;;;5.90;99.90;;;;;;487232;244;27431;-74
2023/04/13 03:01:40;;;;;;;9.93;1.77;;;5.80;99.90;;;;;;487288;244;28852;-74
2023/04/13 03:03:40;;;;;;;6.03;1.85;;;5.80;99.90;;;;;;487234;244;28304;-74
2023/04/13 03:05:42;;;;;;;7.18;1.98;;;5.80;99.90;;;;;;487184;244;27431;-74
2023/04/13 03:07:44;;;;;;;5.22;1.92;;;5.80;99.90;;;;;;487275;244;27835;-74
2023/04/13 03:09:46;;;;;;;7.00;1.60;;;5.80;99.90;;;;;;487266;244;27458;-74
2023/04/13 03:11:45;;;;;;;3.97;1.62;;;5.80;99.90;;;;;;487200;244;27420;-74
2023/04/13 03:13:47;;;;;;;3.60;1.50;;;5.80;99.90;;;;;;487296;243;27469;-74
2023/04/13 03:15:48;;;;;;;3.67;1.50;;;5.80;99.90;;;;;;487164;243;29218;-75
2023/04/13 03:17:49;;;;;;;11.12;1.80;;;5.80;99.90;;;;;;487251;244;28741;-74
2023/04/13 03:19:50;;;;;;;3.13;1.60;;;5.80;99.90;;;;;;487269;244;27536;-74
2023/04/13 03:21:52;;;;;;;9.25;3.17;;;5.80;99.90;;;;;;487290;244;28912;-74
2023/04/13 03:23:53;;;;;;;2.92;1.70;;;5.80;99.90;;;;;;487296;243;27949;-74
2023/04/13 03:25:54;;;;;;;5.07;2.00;;;5.80;99.90;;;;;;487201;244;27463;-74
2023/04/13 03:27:55;;;;;;;7.12;2.15;;;5.80;99.90;;;;;;487258;244;27395;-74
2023/04/13 03:29:57;;;;;;;5.53;2.33;;;5.80;99.90;;;;;;487283;244;27410;-75
2023/04/13 03:31:58;;;;;;;6.25;2.15;;;5.80;99.90;;;;;;487267;244;27447;-75
2023/04/13 03:33:59;;;;;;;3.13;1.73;;;5.80;99.90;;;;;;487278;244;27394;-74
2023/04/13 03:36:00;;;;;;;5.12;2.12;;;5.80;99.90;;;;;;487186;243;29084;-74
2023/04/13 03:38:02;;;;;;;5.20;1.85;;;5.80;99.90;;;;;;487257;244;28699;-74
2023/04/13 03:40:03;;;;;;;4.55;1.70;;;5.80;99.90;;;;;;487304;244;27387;-74
2023/04/13 03:42:04;;;;;;;7.25;1.90;;;5.80;99.90;;;;;;487305;244;27458;-75
2023/04/13 03:44:06;;;;;;;14.10;2.20;;;5.80;99.90;;;;;;487271;244;27387;-74
2023/04/13 03:46:07;;;;;;;4.93;2.07;;;5.70;99.90;;;;;;487242;244;28903;-74
2023/04/13 03:48:09;;;;;;;4.10;1.87;;;5.70;99.90;;;;;;487303;244;28886;-74
2023/04/13 03:50:09;;;;;;;6.60;1.77;;;5.70;99.90;;;;;;487279;244;27475;-74
2023/04/13 03:52:11;;;;;;;5.28;1.60;;;5.70;99.90;;;;;;487308;244;28389;-74
2023/04/13 03:54:12;;;;;;;4.82;2.03;;;5.70;99.90;;;;;;487259;243;27966;-74
2023/04/13 03:56:13;;;;;;;10.35;2.00;;;5.70;99.90;;;;;;487219;244;27510;-74
2023/04/13 03:58:14;;;;;;;9.45;2.20;;;5.70;99.90;;;;;;487270;244;27422;-74
2023/04/13 04:00:16;;;;;;;10.45;2.22;;;5.70;99.90;;;;;;487298;244;27576;-74
2023/04/13 04:02:17;;;;;;;4.77;1.70;;;5.70;99.90;;;;;;487303;244;27462;-74
2023/04/13 04:04:18;;;;;;;7.12;1.92;;;5.70;99.90;;;;;;487247;243;28743;-74
2023/04/13 04:06:19;;;;;;;6.82;2.20;;;5.70;99.90;;;;;;487214;244;28049;-74
2023/04/13 04:08:21;;;;;;;5.62;2.17;;;5.70;99.90;;;;;;487317;244;28082;-74
2023/04/13 04:10:22;;;;;;;8.50;1.80;;;5.70;99.90;;;;;;487306;244;27467;-74
2023/04/13 04:12:23;;;;;;;4.40;1.90;;;5.70;99.90;;;;;;487274;244;27434;-74
2023/04/13 04:14:24;;;;;;;8.80;2.70;;;5.60;99.90;;;;;;487232;244;28778;-74
2023/04/13 04:16:26;;;;;;;6.47;2.22;;;5.60;99.90;;;;;;487209;244;27430;-74
2023/04/13 04:18:27;;;;;;;6.85;2.35;;;5.60;99.90;;;;;;487330;244;27446;-75
2023/04/13 04:20:28;;;;;;;7.65;1.90;;;5.60;99.90;;;;;;487276;244;27916;-74
2023/04/13 04:22:33;;;;;;;10.65;2.10;;;5.60;99.90;;;;;;487308;244;28060;-75
2023/04/13 04:24:31;;;;;;;12.10;2.12;;;5.60;99.90;;;;;;486967;244;27745;-74
2023/04/13 04:26:32;;;;;;;13.20;3.10;;;5.50;99.90;;;;;;487306;244;27422;-74
2023/04/13 04:28:37;;;;;;;8.15;2.00;;;5.50;99.90;;;;;;487340;244;27465;-74
2023/04/13 04:30:34;;;;;;;11.57;2.30;;;5.50;99.90;;;;;;486574;244;27436;-74
2023/04/13 04:32:36;;;;;;;6.60;2.10;;;5.50;99.90;;;;;;487268;244;27929;-74
2023/04/13 04:34:37;;;;;;;8.23;2.08;;;5.50;99.90;;;;;;487207;244;29211;-74
2023/04/13 04:36:40;;;;;;;6.32;1.77;;;5.50;99.90;;;;;;487317;244;27419;-74
2023/04/13 04:38:40;;;;;;;6.35;2.45;;;5.50;99.90;;;;;;487207;244;27564;-75
2023/04/13 04:40:43;;;;;;;6.05;1.75;;;5.50;99.90;;;;;;487297;244;27396;-74
2023/04/13 04:42:42;;;;;;;10.38;2.65;;;5.50;99.90;;;;;;487117;244;27494;-74
2023/04/13 04:44:46;;;;;;;7.97;2.00;;;5.50;99.90;;;;;;487218;244;27954;-74
2023/04/13 04:46:47;;;;;;;3.08;1.70;;;5.50;99.90;;;;;;487177;244;27911;-74
2023/04/13 04:48:46;;;;;;;8.75;2.00;;;5.50;99.90;;;;;;487144;244;27450;-74
2023/04/13 04:50:47;;;;;;;9.02;2.00;;;5.50;99.90;;;;;;487301;244;27387;-74
2023/04/13 04:52:48;;;;;;;3.30;1.92;;;5.50;99.90;;;;;;487274;244;27438;-74
2023/04/13 04:54:50;;;;;;;6.18;2.15;;;5.50;99.90;;;;;;487228;244;27395;-74
2023/04/13 04:56:51;;;;;;;4.87;1.70;;;5.50;99.90;;;;;;487292;244;27462;-74
2023/04/13 04:58:52;;;;;;;6.65;2.47;;;5.50;99.90;;;;;;487351;243;27993;-74
2023/04/13 05:00:55;;;;;;;11.32;2.75;;;5.50;99.90;;;;;;487307;244;27983;-74
2023/04/13 05:02:56;;;;;;;7.97;1.98;;;5.50;99.90;;;;;;487179;244;27446;-75
2023/04/13 05:04:56;;;;;;;8.20;2.35;;;5.50;99.90;;;;;;487171;244;27482;-74
2023/04/13 05:06:57;;;;;;;6.93;2.10;;;5.40;99.90;;;;;;487269;244;27463;-74
2023/04/13 05:08:58;;;;;;;11.82;2.60;;;5.40;99.90;;;;;;487317;244;27463;-74
2023/04/13 05:11:00;;;;;;;7.00;2.12;;;5.40;99.90;;;;;;487298;244;27850;-74
2023/04/13 05:13:01;;;;;;;5.47;2.15;;;5.50;99.90;;;;;;487264;244;27941;-74
2023/04/13 05:15:03;;;;;;;10.93;2.50;;;5.50;99.90;;;;;;487239;244;27387;-74
2023/04/13 05:17:04;;;;;;;8.85;2.53;;;5.50;99.90;;;;;;487317;244;27415;-74
2023/04/13 05:19:07;;;;;;;7.75;2.60;;;5.60;99.90;;;;;;487327;244;27450;-74
2023/04/13 05:21:06;;;;;;;8.10;2.28;;;5.60;99.90;;;;;;487174;244;27395;-74
2023/04/13 05:23:08;;;;;;;9.00;2.05;;;5.50;99.90;;;;;;487317;244;27434;-74
2023/04/13 05:25:08;;;;;;;10.23;2.60;;;5.60;99.90;;;;;;487255;243;27936;-74
2023/04/13 05:27:10;;;;;;;11.60;2.90;;;5.60;99.90;;;;;;487329;244;28432;-75
2023/04/13 05:29:11;;;;;;;9.75;2.78;;;5.50;99.90;;;;;;487337;244;27541;-74
2023/04/13 05:31:13;;;;;;;15.50;2.90;;;5.60;99.90;;;;;;487306;244;27387;-74
2023/04/13 05:33:15;;;;;;;12.30;2.60;;;5.70;99.90;;;;;;487282;244;28626;-74
2023/04/13 05:35:15;;;;;;;9.80;2.60;;;5.80;99.90;;;;;;487111;244;28788;-74
2023/04/13 05:37:16;;;;;;;7.05;2.45;;;5.80;99.90;;;;;;487290;244;28171;-74
2023/04/13 05:39:18;;;;;;;12.60;2.53;;;5.80;99.90;;;;;;487332;244;27463;-74
2023/04/13 05:41:19;;;;;;;9.97;2.33;;;5.80;99.90;;;;;;487308;244;28350;-74
2023/04/13 05:43:20;;;;;;;11.03;2.67;;;5.80;99.90;;;;;;487278;244;28503;-74
2023/04/13 05:45:21;;;;;;;9.20;2.80;;;5.70;99.90;;;;;;487213;244;29342;-74
2023/04/13 05:47:22;;;;;;;10.75;3.05;;;5.70;99.90;;;;;;487317;244;29318;-74
2023/04/13 05:49:24;;;;;;;13.13;2.60;;;5.70;99.90;;;;;;487241;244;27485;-74
2023/04/13 05:51:29;;;;;;;7.97;2.65;;;5.70;99.90;;;;;;487223;244;27985;-74
2023/04/13 05:53:26;;;;;;;11.73;2.80;;;5.60;99.90;;;;;;486995;244;27550;-74
2023/04/13 05:55:28;;;;;;;9.73;2.67;;;5.60;99.90;;;;;;487176;244;28566;-74
2023/04/13 05:57:29;;;;;;;9.70;2.50;;;5.60;99.90;;;;;;487259;243;28786;-75
2023/04/13 05:59:30;;;;;;;14.60;2.57;;;5.60;99.90;;;;;;487292;244;28154;-74
2023/04/13 06:01:31;;;;;;;12.87;2.83;;;5.60;99.90;;;;;;487293;243;29206;-74
2023/04/13 06:03:33;;;;;;;11.60;2.60;;;5.60;99.90;;;;;;487242;244;28657;-74
2023/04/13 06:05:35;;;;;;;7.83;2.80;;;5.60;99.90;;;;;;487176;244;28294;-74
2023/04/13 06:07:35;;;;;;;8.50;2.47;;;5.60;99.90;;;;;;487193;244;29056;-74
2023/04/13 06:09:37;;;;;;;11.80;2.70;;;5.70;99.90;;;;;;487317;244;29417;-75
2023/04/13 06:11:37;;;;;;;12.23;2.80;;;5.70;99.90;;;;;;487283;244;27419;-74
2023/04/13 06:13:40;;;;;;;7.50;2.10;;;5.80;99.90;;;;;;487265;244;28799;-75
2023/04/13 06:15:40;;;;;;;11.40;2.53;;;5.80;99.90;;;;;;487140;244;27408;-74
2023/04/13 06:17:41;;;;;;;14.67;3.77;;;5.80;99.90;;;;;;487307;244;28776;-74
2023/04/13 06:19:42;;;;;;;11.70;3.17;;;5.70;99.90;;;;;;487319;244;28129;-74
2023/04/13 06:21:44;;;;;;;11.33;2.63;;;5.80;99.90;;;;;;487284;244;29204;-75
2023/04/13 06:23:45;;;;;;;12.23;3.10;;;5.80;99.90;;;;;;487301;244;29279;-75
2023/04/13 06:25:46;;;;;;;8.27;2.47;;;5.80;99.90;;;;;;487213;244;30339;-74
2023/04/13 06:27:48;;;;;;;10.87;2.60;;;5.70;99.90;;;;;;487324;244;28305;-74
2023/04/13 06:29:49;;;;;;;12.30;3.27;;;5.80;99.90;;;;;;487302;244;28137;-74
2023/04/13 06:31:50;;;;;;;12.43;3.40;;;5.80;99.90;;;;;;487280;244;28210;-74
2023/04/13 06:33:51;;;;;;;10.47;3.00;;;5.70;99.90;;;;;;487249;244;28493;-75
2023/04/13 06:35:52;;;;;;;10.90;2.58;;;5.70;99.90;;;;;;487197;243;28610;-74
2023/04/13 06:37:54;;;;;;;14.30;2.83;;;5.70;99.90;;;;;;487308;244;27482;-74
2023/04/13 06:39:55;;;;;;;9.43;2.80;;;5.60;99.90;;;;;;487200;244;27953;-75
2023/04/13 06:41:56;;;;;;;11.52;3.85;;;5.60;99.90;;;;;;487302;244;27870;-74
2023/04/13 06:43:57;;;;;;;10.57;3.28;;;5.70;99.90;;;;;;487277;244;27922;-75
2023/04/13 06:45:59;;;;;;;9.53;2.90;;;5.70;99.90;;;;;;487301;244;27434;-74
2023/04/13 06:48:00;;;;;;;15.98;2.60;;;5.70;99.90;;;;;;487315;244;27880;-74
2023/04/13 06:50:01;;;;;;;6.18;3.08;;;5.70;99.90;;;;;;487296;244;27431;-74
2023/04/13 06:52:02;;;;;;;12.83;3.40;;;5.70;99.90;;;;;;487324;244;27398;-74
2023/04/13 06:54:04;;;;;;;10.83;3.03;;;5.80;99.90;;;;;;487288;244;28825;-74
2023/04/13 06:56:05;;;;;;;12.77;2.83;;;5.80;99.90;;;;;;487284;244;27479;-74
2023/04/13 06:58:06;;;;;;;13.97;3.27;;;5.80;99.90;;;;;;487313;244;27756;-74
2023/04/13 07:00:07;;;;;;;8.07;2.57;;;5.80;99.90;;;;;;487303;243;28524;-74
2023/04/13 07:02:09;;;;;;;15.33;3.20;;;5.80;99.90;;;;;;487275;244;28473;-74
2023/04/13 07:04:10;;;;;;;14.47;3.23;;;5.80;99.90;;;;;;487249;244;28154;-74
2023/04/13 07:06:11;;;;;;;6.87;2.97;;;5.80;99.90;;;;;;487162;244;28903;-74
2023/04/13 07:08:12;;;;;;;12.93;2.97;;;5.80;99.90;;;;;;487311;244;28194;-74
2023/04/13 07:10:14;;;;;;;8.50;3.67;;;5.80;99.90;;;;;;487273;244;27997;-74
2023/04/13 07:12:15;;;;;;;11.97;3.33;;;5.90;99.90;;;;;;487271;244;28319;-74
2023/04/13 07:14:16;;;;;;;22.20;3.70;;;5.90;99.90;;;;;;487212;244;28004;-74
2023/04/13 07:16:17;;;;;;;12.93;2.50;;;5.90;99.90;;;;;;487238;244;28767;-74
2023/04/13 07:18:19;;;;;;;11.20;3.00;;;5.90;99.90;;;;;;487305;244;27605;-74
2023/04/13 07:20:21;;;;;;;10.07;2.20;;;5.90;99.90;;;;;;487285;244;27802;-74
2023/04/13 07:22:21;;;;;;;9.93;3.53;;;5.80;99.90;;;;;;487201;244;27842;-74
2023/04/13 07:24:22;;;;;;;7.70;2.90;;;5.90;99.90;;;;;;487149;244;27613;-74
2023/04/13 07:26:24;;;;;;;9.87;3.33;;;5.90;99.90;;;;;;487306;244;28690;-74
2023/04/13 07:28:26;;;;;;;11.90;3.00;;;5.80;99.90;;;;;;487183;244;28509;-74
2023/04/13 07:30:26;;;;;;;10.60;3.47;;;5.90;99.90;;;;;;487206;244;28581;-74
2023/04/13 07:32:27;;;;;;;7.50;2.97;;;5.90;99.90;;;;;;487220;243;28505;-74
2023/04/13 07:34:29;;;;;;;12.40;3.60;;;6.00;99.90;;;;;;487236;244;30523;-74
2023/04/13 07:36:30;;;;;;;12.10;3.20;;;6.00;99.90;;;;;;487280;244;28902;-74
2023/04/13 07:38:31;;;;;;;10.87;2.93;;;6.00;99.90;;;;;;487286;244;27743;-74
2023/04/13 07:40:34;;;;;;;11.93;3.23;;;6.00;99.90;;;;;;487240;244;27792;-74
2023/04/13 07:42:35;;;;;;;12.13;3.70;;;6.10;99.90;;;;;;487164;244;27731;-74
2023/04/13 07:44:35;;;;;;;11.83;3.20;;;6.10;99.90;;;;;;487187;244;28137;-74
2023/04/13 07:46:36;;;;;;;9.53;2.80;;;6.00;99.90;;;;;;487308;244;28158;-74
2023/04/13 07:48:37;;;;;;;7.23;2.63;;;6.10;99.90;;;;;;487305;244;27912;-74
2023/04/13 07:50:39;;;;;;;9.33;2.60;;;6.10;99.90;;;;;;487279;244;27921;-74
2023/04/13 07:52:40;;;;;;;8.80;2.97;;;6.20;99.90;;;;;;487289;244;27755;-75
2023/04/13 07:54:41;;;;;;;8.03;2.50;;;6.20;99.90;;;;;;487271;244;27960;-74
2023/04/13 07:56:42;;;;;;;10.23;3.03;;;6.10;99.90;;;;;;487305;244;28319;-74
2023/04/13 07:58:44;;;;;;;13.20;3.70;;;6.00;99.90;;;;;;487320;243;28408;-74
2023/04/13 08:00:45;;;;;;;12.87;3.10;;;6.00;99.90;;;;;;487293;244;28406;-74
2023/04/13 08:02:46;;;;;;;10.77;3.80;;;6.10;99.90;;;;;;487278;243;28829;-74
2023/04/13 08:04:47;;;;;;;11.73;2.80;;;6.10;99.90;;;;;;487261;244;27562;-74
2023/04/13 08:06:49;;;;;;;10.40;2.83;;;6.00;99.90;;;;;;487294;244;27939;-74
2023/04/13 08:08:50;;;;;;;7.43;2.57;;;6.00;99.90;;;;;;487302;244;27762;-74
2023/04/13 08:10:51;;;;;;;8.03;2.80;;;6.00;99.90;;;;;;487303;244;27982;-74
2023/04/13 08:12:52;;;;;;;9.00;2.60;;;5.90;99.90;;;;;;487290;244;28782;-74
2023/04/13 08:14:54;;;;;;;7.20;3.17;;;5.90;99.90;;;;;;487258;243;27554;-74
2023/04/13 08:16:55;;;;;;;7.73;3.10;;;6.00;99.90;;;;;;487319;244;28747;-74
2023/04/13 08:18:56;;;;;;;16.57;5.10;;;6.00;99.90;;;;;;487337;244;28568;-74
2023/04/13 08:20:57;;;;;;;11.50;3.57;;;6.00;99.90;;;;;;487296;243;27584;-74
2023/04/13 08:22:59;;;;;;;7.73;3.20;;;6.10;99.90;;;;;;487311;244;27993;-74
2023/04/13 08:25:00;;;;;;;8.00;2.80;;;6.10;99.90;;;;;;487285;244;28280;-74
2023/04/13 08:27:01;;;;;;;6.70;2.93;;;6.10;99.90;;;;;;487341;244;28258;-74
2023/04/13 08:29:02;;;;;;;8.80;2.67;;;6.20;99.90;;;;;;487338;244;28305;-74
2023/04/13 08:31:04;;;;;;;8.07;2.67;;;6.30;99.90;;;;;;487302;244;28459;-74
2023/04/13 08:33:05;;;;;;;7.63;3.07;;;6.20;99.90;;;;;;487294;244;28621;-74
2023/04/13 08:35:06;;;;;;;6.00;2.87;;;6.30;99.90;;;;;;487223;244;27969;-74
2023/04/13 08:37:08;;;;;;;6.00;2.93;;;6.50;99.90;;;;;;487332;244;28278;-74
2023/04/13 08:39:09;;;;;;;5.47;2.43;;;6.60;99.90;;;;;;487318;244;27876;-74
2023/04/13 08:41:10;;;;;;;13.17;3.10;;;6.70;99.90;;;;;;487295;244;28002;-74
2023/04/13 08:43:12;;;;;;;8.03;2.63;;;6.80;99.90;;;;;;487285;244;27972;-74
2023/04/13 08:45:12;;;;;;;12.40;3.07;;;6.80;99.90;;;;;;487236;244;27921;-74
2023/04/13 08:47:14;;;;;;;7.80;2.73;;;6.80;99.90;;;;;;487235;244;27878;-74
2023/04/13 08:49:15;;;;;;;6.10;2.20;;;6.70;99.90;;;;;;487311;244;27887;-75
2023/04/13 08:51:16;;;;;;;6.10;2.33;;;6.60;99.90;;;;;;487303;244;27822;-74
2023/04/13 08:53:17;;;;;;;9.47;2.40;;;6.70;99.90;;;;;;487262;244;28414;-75
2023/04/13 08:55:19;;;;;;;6.17;2.60;;;6.90;99.90;;;;;;487220;244;28682;-74
2023/04/13 08:57:20;;;;;;;8.87;2.67;;;6.90;99.90;;;;;;487317;244;28423;-75
2023/04/13 08:59:21;;;;;;;7.40;2.87;;;6.70;99.90;;;;;;487287;243;27899;-74
2023/04/13 09:01:22;;;;;;;4.60;2.63;;;6.60;99.90;;;;;;487275;244;27948;-75
2023/04/13 09:03:24;;;;;;;4.87;2.50;;;6.70;99.90;;;;;;487269;244;28132;-74
2023/04/13 09:05:25;;;;;;;11.23;3.00;;;6.70;99.90;;;;;;487221;244;28046;-74
2023/04/13 09:07:26;;;;;;;8.53;2.40;;;6.80;99.90;;;;;;487309;244;28357;-75
2023/04/13 09:09:28;;;;;;;10.53;2.80;;;6.90;99.90;;;;;;487296;244;27503;-74
2023/04/13 09:11:29;;;;;;;11.97;3.60;;;6.90;99.90;;;;;;487287;244;27893;-74
2023/04/13 09:13:30;;;;;;;9.10;2.87;;;7.10;99.90;;;;;;487260;244;27835;-74
2023/04/13 09:15:31;;;;;;;8.07;2.80;;;7.40;99.90;;;;;;487190;244;27988;-74
2023/04/13 09:17:33;;;;;;;7.57;2.87;;;7.60;99.90;;;;;;487269;244;27959;-75
2023/04/13 09:19:34;;;;;;;11.10;3.30;;;7.90;99.90;;;;;;487307;244;27894;-75
2023/04/13 09:21:36;;;;;;;11.20;2.70;;;8.10;99.90;;;;;;487280;243;28439;-75
2023/04/13 09:23:36;;;;;;;8.43;2.87;;;7.80;99.90;;;;;;487267;244;28363;-75
2023/04/13 09:25:38;;;;;;;7.40;3.07;;;7.90;99.90;;;;;;487236;244;28429;-75
2023/04/13 09:27:39;;;;;;;8.95;3.10;;;8.00;99.90;;;;;;486713;244;35873;-75
2023/04/13 09:29:40;;;;;;;11.87;2.83;;;8.30;99.90;;;;;;487286;244;27477;-75
2023/04/13 09:31:42;;;;;;;11.37;2.67;;;8.30;99.90;;;;;;487293;244;27941;-75
2023/04/13 09:33:44;;;;;;;5.07;2.10;;;8.30;99.90;;;;;;487282;244;28024;-75
2023/04/13 09:35:44;;;;;;;8.00;2.97;;;8.40;99.90;;;;;;487176;244;27925;-75
2023/04/13 09:37:46;;;;;;;6.73;2.70;;;8.50;99.90;;;;;;487312;244;27950;-75
2023/04/13 09:39:46;;;;;;;7.77;3.27;;;8.30;99.90;;;;;;487295;244;27803;-75
2023/04/13 09:41:49;;;;;;;11.63;3.13;;;7.90;99.90;;;;;;487317;244;27772;-75
2023/04/13 09:43:49;;;;;;;9.57;2.77;;;7.90;99.90;;;;;;487210;244;27829;-75
2023/04/13 09:45:50;;;;;;;5.60;2.70;;;8.00;99.90;;;;;;487231;244;28057;-75
2023/04/13 09:47:52;;;;;;;8.07;3.60;;;8.40;99.90;;;;;;487327;244;27891;-75
2023/04/13 09:49:52;;;;;;;10.90;2.97;;;8.40;99.90;;;;;;487320;244;27766;-75
2023/04/13 09:51:55;;;;;;;5.83;2.63;;;8.30;99.90;;;;;;487288;244;28481;-75
2023/04/13 09:53:55;;;;;;;6.57;2.60;;;8.20;99.90;;;;;;487233;244;28762;-75
2023/04/13 09:55:56;;;;;;;10.33;2.80;;;8.20;99.90;;;;;;487226;244;28507;-75
2023/04/13 09:57:57;;;;;;;9.47;2.73;;;8.40;99.90;;;;;;487320;244;28499;-75
2023/04/13 10:00:16;;;;;;;7.83;2.90;;;8.50;99.90;;;;;;487337;244;27707;-75
2023/04/13 10:02:00;;;;;;;9.27;2.87;;;8.50;99.90;;;;;;484781;244;27753;-75
2023/04/13 10:04:01;;;;;;;5.17;2.50;;;8.40;99.90;;;;;;487300;243;27870;-75
2023/04/13 10:06:03;;;;;;;7.60;3.23;;;8.20;99.90;;;;;;487193;244;27836;-75
2023/04/13 10:08:05;;;;;;;8.40;3.03;;;8.20;99.90;;;;;;487191;244;27901;-74
2023/04/13 10:10:05;;;;;;;7.77;2.93;;;8.00;99.90;;;;;;487253;244;27879;-75
2023/04/13 10:12:06;;;;;;;7.63;2.90;;;8.00;99.90;;;;;;487299;244;27914;-75
2023/04/13 10:14:08;;;;;;;8.30;2.97;;;8.00;99.90;;;;;;487252;244;27952;-75
2023/04/13 10:16:09;;;;;;;9.63;3.00;;;8.20;99.90;;;;;;487179;244;27989;-75
2023/04/13 10:18:10;;;;;;;5.47;2.37;;;8.40;99.90;;;;;;487274;244;27636;-75
2023/04/13 10:20:12;;;;;;;12.53;3.10;;;8.30;99.90;;;;;;487307;244;27971;-74
2023/04/13 10:22:12;;;;;;;7.43;2.57;;;8.40;99.90;;;;;;487269;244;27980;-75
2023/04/13 10:24:14;;;;;;;7.43;2.70;;;8.30;99.90;;;;;;487271;244;27882;-75
2023/04/13 10:26:16;;;;;;;6.47;2.53;;;8.30;99.90;;;;;;487218;244;27954;-75
2023/04/13 10:28:16;;;;;;;4.90;2.50;;;8.40;99.90;;;;;;487212;244;28405;-75
2023/04/13 10:30:18;;;;;;;12.73;3.20;;;8.30;99.90;;;;;;487286;244;28273;-75
2023/04/13 10:32:19;;;;;;;12.00;3.37;;;8.10;99.90;;;;;;487315;244;28592;-75
2023/04/13 10:34:20;;;;;;;7.67;2.53;;;8.10;99.90;;;;;;487227;244;28216;-76
2023/04/13 10:36:22;;;;;;;8.17;3.03;;;8.30;99.90;;;;;;487236;244;27927;-75
2023/04/13 10:38:22;;;;;;;13.17;2.67;;;8.50;99.90;;;;;;487276;244;27765;-75